Terminal Aerodrome Forecast
Issued by NWS Blacksburg, VA

Home | Current Version | Previous Version | Text Only | Print | Product List | Glossary On
Versions: 1 2 3 4 5 6 7 8 9 10 11 12 13 14 15 16 17
000
FTUS41 KRNK 180520
TAFDAN
TAF
KDAN 180520Z 1806/1906 23005KT 5SM BR OVC045 WS020/24040KT
      TEMPO 1806/1808 3SM BR OVC003
     FM181300 29007KT P6SM BKN200
     FM181500 30010KT P6SM FEW035
     FM190000 31005KT P6SM FEW250=

USA.gov is the U.S. government's official web portal to all federal, state and local government web resources and services.